Time;durP1;ratioP1;P1;durP2;ratioP2;P2;SDS_P1;SDS_P2;PMS_P1;PMS_P2;Temp;Humidity;BMP_temperature;BMP_pressure;BME280_temperature;BME280_humidity;BME280_pressure;Samples;Min_cycle;Max_cycle;Signal;HPM_P1;HPM_P2
2022/11/29 00:01:45;;;;;;;67.82;41.33;;;;;;;4.52;100.00;101235.28;10417770;28;20116;-88
2022/11/29 00:06:46;;;;;;;73.53;42.83;;;;;;;4.41;100.00;101231.84;10419375;28;20048;-88
2022/11/29 00:17:05;;;;;;;46.15;29.88;;;;;;;4.24;100.00;101242.56;10458826;28;20040;-89
2022/11/29 00:22:06;;;;;;;55.03;33.65;;;;;;;4.22;100.00;101236.34;10479655;28;20048;-89
2022/11/29 00:27:06;;;;;;;167.23;57.65;;;;;;;4.25;100.00;101236.59;10444669;28;20037;-89
2022/11/29 00:32:07;;;;;;;106.47;41.28;;;;;;;4.20;100.00;101244.03;10460368;28;20040;-88
2022/11/29 00:37:07;;;;;;;68.15;38.38;;;;;;;4.09;100.00;101250.91;10455400;28;20068;-89
2022/11/29 00:42:08;;;;;;;61.58;42.78;;;;;;;4.00;100.00;101237.25;10442047;28;20035;-88
2022/11/29 00:47:08;;;;;;;74.47;39.58;;;;;;;4.11;100.00;101244.19;10474030;28;20495;-89
2022/11/29 00:52:09;;;;;;;102.75;41.97;;;;;;;4.06;100.00;101240.31;10443370;28;20133;-90
2022/11/29 00:57:09;;;;;;;72.68;41.00;;;;;;;4.06;100.00;101242.91;10442995;28;20469;-90
2022/11/29 01:02:10;;;;;;;62.10;36.28;;;;;;;4.10;100.00;101250.16;10436742;28;20060;-89
2022/11/29 01:07:10;;;;;;;73.85;37.28;;;;;;;4.04;100.00;101252.25;10463550;28;20116;-89
2022/11/29 01:12:11;;;;;;;57.78;35.80;;;;;;;4.01;100.00;101251.09;10479061;28;20519;-89
2022/11/29 01:17:11;;;;;;;69.72;44.03;;;;;;;3.93;100.00;101248.81;10453678;28;20500;-89
2022/11/29 01:22:12;;;;;;;68.13;41.35;;;;;;;3.85;100.00;101260.22;10463892;28;20029;-89
2022/11/29 01:27:13;;;;;;;76.40;42.47;;;;;;;3.82;100.00;101257.41;10466951;28;20127;-89
2022/11/29 01:32:13;;;;;;;75.20;45.25;;;;;;;3.82;100.00;101253.09;10461744;28;20103;-87
2022/11/29 01:37:14;;;;;;;82.32;43.38;;;;;;;3.71;100.00;101253.91;10439228;28;20384;-89
2022/11/29 01:42:14;;;;;;;63.15;41.28;;;;;;;3.59;100.00;101253.84;10435455;28;20043;-89
2022/11/29 01:47:18;;;;;;;65.03;42.33;;;;;;;3.58;100.00;101261.47;10452183;28;20395;-89
2022/11/29 01:52:21;;;;;;;69.22;38.35;;;;;;;3.61;100.00;101272.06;10470069;28;20107;-89
2022/11/29 01:57:22;;;;;;;88.00;47.10;;;;;;;3.74;100.00;101279.16;10462395;28;20044;-90
2022/11/29 02:02:37;;;;;;;76.70;49.92;;;;;;;3.93;100.00;101276.38;10445111;28;20592;-89
2022/11/29 02:07:38;;;;;;;85.05;49.08;;;;;;;4.04;100.00;101277.25;10431123;28;20033;-88
2022/11/29 02:12:53;;;;;;;89.28;51.30;;;;;;;4.05;100.00;101282.53;10460773;28;20437;-89
2022/11/29 02:18:04;;;;;;;81.35;49.05;;;;;;;4.01;100.00;101284.78;10427641;28;20053;-89
2022/11/29 02:23:38;;;;;;;85.95;46.75;;;;;;;4.01;100.00;101296.03;10439020;28;20041;-89
2022/11/29 02:29:20;;;;;;;65.00;38.10;;;;;;;4.16;100.00;101298.03;10444032;28;20041;-88
2022/11/29 02:34:39;;;;;;;71.13;43.90;;;;;;;4.23;100.00;101301.28;10425854;28;20591;-89
2022/11/29 02:39:52;;;;;;;79.20;43.70;;;;;;;4.33;100.00;101307.19;10440084;28;20064;-90
2022/11/29 02:45:04;;;;;;;91.43;48.13;;;;;;;4.42;100.00;101300.16;10401407;28;20443;-90
2022/11/29 02:50:08;;;;;;;88.45;50.88;;;;;;;4.46;100.00;101301.28;10412673;28;20033;-89
2022/11/29 02:55:15;;;;;;;108.22;57.80;;;;;;;4.51;100.00;101307.72;10428444;28;20135;-89
2022/11/29 03:00:17;;;;;;;89.90;52.85;;;;;;;4.58;100.00;101311.72;10429961;28;20485;-89
2022/11/29 03:05:20;;;;;;;;;;;;;;;4.61;100.00;101314.56;10440450;28;20085;-89
2022/11/29 03:10:39;;;;;;;97.65;53.20;;;;;;;4.69;100.00;101318.66;10460946;28;19921;-89
2022/11/29 03:15:45;;;;;;;92.93;52.85;;;;;;;4.76;100.00;101325.22;10458402;28;20056;-88
2022/11/29 03:20:54;;;;;;;96.03;56.92;;;;;;;4.83;100.00;101331.03;10437707;28;20175;-89
2022/11/29 03:26:09;;;;;;;112.13;60.45;;;;;;;4.92;100.00;101329.94;10475867;28;20111;-89
2022/11/29 03:31:18;;;;;;;104.28;53.70;;;;;;;4.96;100.00;101331.97;10437463;28;20499;-89
2022/11/29 03:36:30;;;;;;;73.07;43.65;;;;;;;5.03;100.00;101341.13;10434118;28;20400;-89
2022/11/29 03:41:45;;;;;;;96.67;52.90;;;;;;;5.06;100.00;101343.97;10455648;28;20037;-88
2022/11/29 03:47:02;;;;;;;94.28;52.75;;;;;;;5.01;100.00;101348.81;10447135;28;20687;-88
2022/11/29 03:52:17;;;;;;;103.28;55.45;;;;;;;5.03;100.00;101344.66;10455885;28;20098;-89
2022/11/29 03:57:19;;;;;;;91.47;52.08;;;;;;;5.04;100.00;101354.22;10429196;28;20054;-89
2022/11/29 04:02:29;;;;;;;;;;;;;;;5.07;100.00;101358.75;10467149;28;20048;-89
2022/11/29 04:07:41;;;;;;;77.00;49.55;;;;;;;5.07;100.00;101364.84;10470682;28;19947;-89
2022/11/29 04:13:00;;;;;;;;;;;;;;;5.14;100.00;101366.22;10461330;28;20036;-89
2022/11/29 04:18:09;;;;;;;112.78;61.03;;;;;;;5.13;100.00;101375.72;10473121;28;19987;-89
2022/11/29 04:23:37;;;;;;;116.68;64.00;;;;;;;5.14;100.00;101387.91;10467173;28;20442;-88
2022/11/29 04:28:59;;;;;;;106.68;63.28;;;;;;;5.19;100.00;101389.94;10462854;28;20045;-89
2022/11/29 04:33:59;;;;;;;127.13;66.77;;;;;;;5.20;100.00;101390.06;10447993;28;20495;-89
2022/11/29 04:39:46;;;;;;;121.60;66.07;;;;;;;5.23;100.00;101389.41;10445070;28;20132;-88
2022/11/29 04:45:02;;;;;;;118.88;65.32;;;;;;;5.26;100.00;101394.81;10401534;28;20397;-89
2022/11/29 04:50:14;;;;;;;127.53;64.57;;;;;;;5.26;100.00;101400.91;10457988;28;20068;-88
2022/11/29 04:55:24;;;;;;;116.40;67.25;;;;;;;5.27;100.00;101405.31;10422723;28;20033;-88
2022/11/29 05:00:24;;;;;;;123.40;71.13;;;;;;;5.29;100.00;101411.53;10470124;28;20131;-89
2022/11/29 05:05:46;;;;;;;117.97;64.63;;;;;;;5.32;100.00;101422.94;10469329;28;20450;-89
2022/11/29 05:11:07;;;;;;;120.78;61.58;;;;;;;5.32;100.00;101429.03;10461960;28;20066;-89
2022/11/29 05:16:14;;;;;;;120.85;64.75;;;;;;;5.32;100.00;101436.84;10470968;28;20519;-90
2022/11/29 05:21:41;;;;;;;126.75;68.28;;;;;;;5.35;100.00;101428.38;10450215;28;20598;-87
2022/11/29 05:27:11;;;;;;;117.10;64.47;;;;;;;5.37;100.00;101438.09;10404832;28;20073;-91
2022/11/29 05:32:21;;;;;;;131.75;64.75;;;;;;;5.38;100.00;101444.19;10443638;28;20037;-89
2022/11/29 05:37:51;;;;;;;117.63;65.30;;;;;;;5.41;100.00;101442.75;10466422;28;20069;-88
2022/11/29 05:43:13;;;;;;;118.43;66.18;;;;;;;5.46;100.00;101445.69;10405760;28;20037;-87
2022/11/29 05:48:30;;;;;;;114.00;60.55;;;;;;;5.42;100.00;101457.53;10459824;28;20036;-88
2022/11/29 05:53:45;;;;;;;113.70;64.05;;;;;;;5.48;100.00;101461.41;10450210;28;20486;-87
2022/11/29 05:59:01;;;;;;;113.85;62.58;;;;;;;5.43;100.00;101466.22;10456900;28;20037;-90
2022/11/29 06:04:16;;;;;;;106.30;63.00;;;;;;;5.42;100.00;101483.50;10451770;28;20107;-92
2022/11/29 06:09:31;;;;;;;123.90;66.40;;;;;;;5.43;100.00;101476.59;10440993;28;20052;-92
2022/11/29 06:14:45;;;;;;;134.60;71.60;;;;;;;5.46;100.00;101496.72;10422059;28;20493;-94
2022/11/29 06:19:57;;;;;;;123.30;60.30;;;;;;;5.48;100.00;101496.03;10466076;28;20043;-87
2022/11/29 06:25:38;;;;;;;142.10;71.15;;;;;;;5.47;100.00;101499.41;10443590;28;20053;-87
2022/11/29 06:31:02;;;;;;;145.35;70.55;;;;;;;5.47;100.00;101499.41;10401547;28;20072;-94
2022/11/29 06:36:18;;;;;;;167.20;80.57;;;;;;;5.46;100.00;101499.31;10461534;28;20082;-87
2022/11/29 06:41:20;;;;;;;178.52;85.50;;;;;;;5.44;100.00;101510.47;10458671;28;20036;-89
2022/11/29 06:46:20;;;;;;;;;;;;;;;5.44;100.00;101520.88;10464442;28;20041;-88
2022/11/29 06:51:27;;;;;;;169.95;82.10;;;;;;;5.42;100.00;101525.03;10458470;28;19931;-87
2022/11/29 06:56:54;;;;;;;179.57;82.40;;;;;;;5.40;100.00;101531.78;10455513;28;20155;-87
2022/11/29 07:02:01;;;;;;;180.60;85.90;;;;;;;5.42;100.00;101542.28;10437959;28;20056;-88
2022/11/29 07:07:01;;;;;;;177.45;83.07;;;;;;;5.42;100.00;101542.28;10477808;28;20029;-87
2022/11/29 07:12:02;;;;;;;171.50;78.53;;;;;;;5.42;100.00;101551.00;10454128;28;20033;-85
2022/11/29 07:17:30;;;;;;;176.32;81.53;;;;;;;5.43;100.00;101560.59;10457755;28;20041;-89
2022/11/29 07:22:55;;;;;;;184.27;83.00;;;;;;;5.43;100.00;101565.78;10419620;28;20040;-90
2022/11/29 07:28:08;;;;;;;165.48;85.18;;;;;;;5.43;100.00;101570.97;10456467;28;20037;-92
2022/11/29 07:33:23;;;;;;;189.13;87.72;;;;;;;5.45;100.00;101571.09;10460779;28;20466;-93
2022/11/29 07:38:29;;;;;;;189.18;85.63;;;;;;;5.47;100.00;101584.22;10459424;28;20051;-87
2022/11/29 07:43:54;;;;;;;179.73;82.93;;;;;;;5.46;100.00;101588.47;10461521;28;20397;-84
2022/11/29 07:48:54;;;;;;;188.68;89.85;;;;;;;5.50;100.00;101590.53;10453029;28;20037;-84
2022/11/29 07:53:55;;;;;;;178.10;83.82;;;;;;;5.53;100.00;101590.78;10470051;28;20098;-90
2022/11/29 07:58:55;;;;;;;178.43;85.80;;;;;;;5.57;100.00;101590.25;10444495;28;20130;-85
2022/11/29 08:03:56;;;;;;;212.32;96.00;;;;;;;5.60;100.00;101589.59;10444087;28;20060;-85
2022/11/29 08:08:57;;;;;;;197.30;84.82;;;;;;;5.62;100.00;101595.81;10446539;28;20168;-84
2022/11/29 08:14:02;;;;;;;199.43;93.97;;;;;;;5.63;100.00;101601.91;10469145;28;20029;-86
2022/11/29 08:19:03;;;;;;;259.25;102.25;;;;;;;5.62;100.00;101608.81;10424994;28;20097;-90
2022/11/29 08:24:04;;;;;;;191.00;93.15;;;;;;;5.62;100.00;101616.59;10447883;28;20104;-95
2022/11/29 08:29:05;;;;;;;208.25;96.40;;;;;;;5.66;100.00;101616.06;10456595;28;20404;-88
2022/11/29 08:34:06;;;;;;;222.98;99.25;;;;;;;5.72;100.00;101616.53;10456280;28;20124;-87
2022/11/29 08:39:06;;;;;;;242.05;97.63;;;;;;;5.79;100.00;101622.22;10460348;28;20064;-85
2022/11/29 08:44:07;;;;;;;231.48;102.63;;;;;;;5.84;100.00;101629.56;10446150;28;20049;-84
2022/11/29 08:49:07;;;;;;;212.70;92.70;;;;;;;5.96;100.00;101631.31;10451591;28;20047;-87
2022/11/29 08:54:08;;;;;;;207.13;90.43;;;;;;;5.96;100.00;101637.44;10447238;28;20041;-87
2022/11/29 08:59:08;;;;;;;191.65;87.80;;;;;;;6.00;100.00;101633.38;10439983;28;20121;-83
2022/11/29 09:04:09;;;;;;;202.73;95.53;;;;;;;5.97;100.00;101634.06;10468510;28;20036;-87
2022/11/29 09:09:10;;;;;;;222.77;95.43;;;;;;;6.02;100.00;101637.97;10459532;28;20036;-87
2022/11/29 09:14:13;;;;;;;217.70;92.70;;;;;;;6.02;100.00;101637.97;10438377;28;20492;-90
2022/11/29 09:19:14;;;;;;;220.07;93.00;;;;;;;5.94;100.00;101649.41;10394383;28;20140;-93
2022/11/29 09:24:15;;;;;;;207.20;93.97;;;;;;;5.93;100.00;101657.06;10404900;28;20041;-91
2022/11/29 09:29:16;;;;;;;169.98;81.53;;;;;;;5.98;100.00;101668.72;10420425;28;20731;-86
2022/11/29 09:34:19;;;;;;;193.48;89.75;;;;;;;6.22;100.00;101671.47;10423044;28;20040;-86
2022/11/29 09:39:20;;;;;;;206.68;92.95;;;;;;;6.54;100.00;101678.28;10461712;28;20072;-86
2022/11/29 09:44:23;;;;;;;199.35;81.65;;;;;;;6.79;100.00;101681.06;10435095;28;20097;-85
2022/11/29 09:49:30;;;;;;;196.52;82.30;;;;;;;6.80;100.00;101689.75;10471062;28;20032;-85
2022/11/29 09:54:34;;;;;;;168.82;69.88;;;;;;;6.74;100.00;101685.03;10474788;28;20045;-86
2022/11/29 09:59:43;;;;;;;155.60;71.75;;;;;;;6.72;100.00;101689.19;10458602;28;20554;-88
2022/11/29 10:04:47;;;;;;;170.32;65.15;;;;;;;6.68;100.00;101695.84;10435491;28;20072;-88
2022/11/29 10:09:51;;;;;;;159.20;56.03;;;;;;;6.60;100.00;101697.88;10421265;28;20041;-88
2022/11/29 10:15:11;;;;;;;133.43;56.03;;;;;;;6.52;100.00;101693.78;10422620;28;20044;-88
2022/11/29 10:20:25;;;;;;;147.30;58.40;;;;;;;6.44;100.00;101692.28;10453757;28;20064;-87
2022/11/29 10:25:37;;;;;;;162.45;56.78;;;;;;;6.66;100.00;101701.72;10466552;28;20037;-85
2022/11/29 10:30:38;;;;;;;147.27;60.75;;;;;;;6.77;100.00;101695.66;10427722;28;20033;-85
2022/11/29 10:35:38;;;;;;;129.13;54.97;;;;;;;6.87;100.00;101697.25;10430695;28;20119;-85
2022/11/29 10:40:39;;;;;;;141.02;64.82;;;;;;;6.99;100.00;101695.56;10440130;28;20115;-86
2022/11/29 10:45:52;;;;;;;113.55;50.42;;;;;;;7.09;100.00;101697.19;10474838;28;20045;-85
2022/11/29 10:50:52;;;;;;;109.60;45.33;;;;;;;7.11;100.00;101693.00;10434942;28;20052;-85
2022/11/29 10:56:06;;;;;;;107.88;50.38;;;;;;;7.20;100.00;101696.28;10440118;28;20033;-85
2022/11/29 11:01:07;;;;;;;93.15;45.83;;;;;;;7.26;100.00;101695.81;10450907;28;20041;-85
2022/11/29 11:06:17;;;;;;;95.38;41.85;;;;;;;7.09;100.00;101691.06;10419115;28;20087;-82
2022/11/29 11:11:30;;;;;;;88.05;42.20;;;;;;;7.30;100.00;101703.06;10402093;28;20069;-89
2022/11/29 11:16:31;;;;;;;86.75;35.60;;;;;;;7.46;100.00;101694.72;10441179;28;20029;-86
2022/11/29 11:21:32;;;;;;;81.80;35.40;;;;;;;7.35;100.00;101700.84;10422862;28;20504;-89
2022/11/29 11:26:41;;;;;;;73.85;38.00;;;;;;;7.26;100.00;101697.53;10423404;28;20045;-85
2022/11/29 11:31:42;;;;;;;93.45;40.47;;;;;;;7.25;100.00;101696.63;10423032;28;20029;-88
2022/11/29 11:36:42;;;;;;;75.35;36.97;;;;;;;7.34;100.00;101702.50;10423321;28;20504;-88
2022/11/29 11:47:06;;;;;;;78.28;36.47;;;;;;;7.24;100.00;101692.22;10443383;28;20045;-91
2022/11/29 11:52:07;;;;;;;80.35;35.55;;;;;;;7.51;100.00;101704.56;10383084;28;20396;-90
2022/11/29 11:57:16;;;;;;;60.53;26.83;;;;;;;7.62;100.00;101706.25;10390754;28;20040;-89
2022/11/29 12:02:27;;;;;;;57.53;27.38;;;;;;;7.64;100.00;101712.50;10441810;28;20036;-87
2022/11/29 12:07:49;;;;;;;61.83;30.00;;;;;;;7.42;100.00;101707.38;10420748;28;20128;-88
2022/11/29 12:12:50;;;;;;;67.47;34.57;;;;;;;7.17;100.00;101716.91;10465684;28;20279;-90
2022/11/29 12:17:50;;;;;;;57.72;30.98;;;;;;;7.07;100.00;101718.69;10425431;28;20493;-93
2022/11/29 12:23:17;;;;;;;61.80;29.02;;;;;;;7.05;100.00;101731.59;10463665;28;20048;-94
2022/11/29 12:28:18;;;;;;;55.10;27.20;;;;;;;7.14;100.00;101734.88;10479482;28;20112;-93
2022/11/29 12:33:31;;;;;;;51.63;25.90;;;;;;;7.13;100.00;101740.88;10441583;28;20044;-88
2022/11/29 12:38:48;;;;;;;59.47;26.70;;;;;;;6.96;100.00;101738.69;10468240;28;20040;-89
2022/11/29 12:44:17;;;;;;;53.85;26.83;;;;;;;6.83;100.00;101742.97;10421893;28;20496;-89
2022/11/29 12:49:40;;;;;;;55.90;28.95;;;;;;;6.76;100.00;101754.56;10438753;28;20091;-88
2022/11/29 12:55:03;;;;;;;64.63;35.88;;;;;;;6.74;100.00;101760.47;10438871;28;20064;-89
2022/11/29 13:00:17;;;;;;;61.90;33.03;;;;;;;6.83;100.00;101766.38;10437405;28;20056;-84
2022/11/29 13:05:39;;;;;;;64.43;33.08;;;;;;;6.89;100.00;101765.94;10438504;28;20033;-88
2022/11/29 13:11:06;;;;;;;59.55;28.08;;;;;;;6.92;100.00;101763.56;10480522;28;20132;-82
2022/11/29 13:16:10;;;;;;;56.55;29.98;;;;;;;6.84;100.00;101768.19;10481118;28;20048;-89
2022/11/29 13:21:15;;;;;;;61.78;31.83;;;;;;;6.82;100.00;101767.19;10481314;28;20094;-89
2022/11/29 13:26:16;;;;;;;56.75;29.92;;;;;;;6.83;100.00;101775.88;10471008;28;20041;-89
2022/11/29 13:31:18;;;;;;;51.67;26.42;;;;;;;6.82;100.00;101776.66;10488893;28;20486;-89
2022/11/29 13:36:18;;;;;;;;;;;;;;;6.85;100.00;101782.09;10471071;28;20056;-89
2022/11/29 13:41:44;;;;;;;53.38;29.52;;;;;;;6.83;100.00;101784.59;10488570;28;20014;-88
2022/11/29 13:47:03;;;;;;;68.70;32.80;;;;;;;6.79;100.00;101784.22;10487812;28;20041;-87
2022/11/29 13:52:04;;;;;;;65.03;33.33;;;;;;;6.79;100.00;101784.22;10468502;28;20048;-89
2022/11/29 13:57:06;;;;;;;65.75;32.33;;;;;;;6.74;100.00;101791.69;10487299;28;20067;-89
2022/11/29 14:02:39;;;;;;;63.97;34.92;;;;;;;6.71;100.00;101796.66;10470139;28;20123;-88
2022/11/29 14:08:35;;;;;;;68.10;35.05;;;;;;;6.68;100.00;101788.59;10453498;28;20032;-89
2022/11/29 14:14:06;;;;;;;91.50;39.10;;;;;;;6.65;100.00;101793.56;10347644;28;20067;-88
2022/11/29 14:19:09;;;;;;;79.15;37.85;;;;;;;6.59;100.00;101793.97;10444419;28;20111;-89
2022/11/29 14:24:38;;;;;;;79.97;40.60;;;;;;;6.60;100.00;101801.91;10445680;28;20441;-88
2022/11/29 14:29:53;;;;;;;80.95;42.20;;;;;;;6.60;100.00;101804.53;10444604;28;20119;-88
2022/11/29 14:35:04;;;;;;;72.70;35.97;;;;;;;6.57;100.00;101814.69;10443839;28;20041;-87
2022/11/29 14:40:29;;;;;;;82.10;38.47;;;;;;;6.63;100.00;101818.56;10454472;28;20036;-88
2022/11/29 14:45:32;;;;;;;86.05;40.08;;;;;;;6.53;100.00;101820.44;10485619;28;20036;-89
2022/11/29 14:50:34;;;;;;;85.38;39.10;;;;;;;6.49;100.00;101831.38;10467994;28;20043;-89
2022/11/29 14:55:36;;;;;;;66.40;32.63;;;;;;;6.41;100.00;101833.34;10479979;28;20484;-89
2022/11/29 15:00:45;;;;;;;50.93;27.93;;;;;;;6.36;100.00;101829.47;10443005;28;20554;-92
2022/11/29 15:05:58;;;;;;;58.72;27.35;;;;;;;6.31;100.00;101838.59;10442574;28;20276;-86
2022/11/29 15:11:00;;;;;;;;;;;;;;;6.21;100.00;101841.25;10442629;28;20068;-86
2022/11/29 15:16:31;;;;;;;59.40;31.83;;;;;;;6.17;100.00;101846.19;10441670;28;20357;-87
2022/11/29 15:21:53;;;;;;;66.43;31.60;;;;;;;6.19;100.00;101856.72;10445826;28;20040;-86
2022/11/29 15:26:55;;;;;;;55.28;26.15;;;;;;;6.12;100.00;101850.09;10442395;28;20041;-87
2022/11/29 15:31:56;;;;;;;;;;;;;;;6.13;100.00;101862.31;10426260;28;20044;-87
2022/11/29 15:36:58;;;;;;;65.03;29.08;;;;;;;6.03;100.00;101862.34;10473710;28;19928;-87
2022/11/29 15:42:09;;;;;;;50.65;27.92;;;;;;;6.13;100.00;101867.53;10441370;28;20112;-86
2022/11/29 15:47:19;;;;;;;45.78;25.63;;;;;;;6.28;100.00;101859.16;10447131;28;20047;-86
2022/11/29 15:52:34;;;;;;;45.13;26.83;;;;;;;6.30;100.00;101855.91;10434993;28;20124;-86
2022/11/29 15:57:39;;;;;;;52.20;24.23;;;;;;;6.28;100.00;101859.16;10410165;28;20044;-84
2022/11/29 16:02:43;;;;;;;46.03;24.63;;;;;;;6.18;100.00;101854.91;10422876;28;20048;-83
2022/11/29 16:07:43;;;;;;;43.00;22.15;;;;;;;6.20;100.00;101855.94;10421923;28;20436;-84
2022/11/29 16:12:55;;;;;;;50.85;26.48;;;;;;;6.15;100.00;101862.47;10422185;28;20040;-84
2022/11/29 16:18:03;;;;;;;47.73;27.47;;;;;;;6.07;100.00;101866.13;10450236;28;20067;-84
2022/11/29 16:23:10;;;;;;;63.33;31.70;;;;;;;5.95;100.00;101865.97;10441231;28;20508;-84
2022/11/29 16:28:11;;;;;;;65.68;30.00;;;;;;;6.10;100.00;101881.97;10416250;28;20078;-84
2022/11/29 16:33:20;;;;;;;53.83;27.13;;;;;;;6.01;100.00;101875.22;10442581;28;20037;-84
2022/11/29 16:38:21;;;;;;;49.22;27.25;;;;;;;5.73;100.00;101870.31;10427719;28;20425;-85
2022/11/29 16:43:22;;;;;;;51.00;26.77;;;;;;;5.51;100.00;101870.19;10448571;28;20041;-84
2022/11/29 16:48:25;;;;;;;56.17;24.83;;;;;;;5.34;100.00;101880.84;10455410;28;20070;-84
2022/11/29 16:53:32;;;;;;;;;;;;;;;5.30;100.00;101887.47;10479721;28;20052;-85
2022/11/29 16:58:32;;;;;;;55.47;30.77;;;;;;;5.16;100.00;101896.66;10451107;28;20319;-84
2022/11/29 17:03:33;;;;;;;63.33;31.75;;;;;;;5.19;100.00;101896.03;10458056;28;20099;-83
2022/11/29 17:08:35;;;;;;;55.40;29.92;;;;;;;5.24;100.00;101906.00;10459352;28;20427;-84
2022/11/29 17:13:36;;;;;;;75.15;34.42;;;;;;;5.17;100.00;101894.97;10451901;28;20128;-84
2022/11/29 17:18:37;;;;;;;65.10;30.90;;;;;;;5.05;100.00;101895.75;10440611;28;20040;-84
2022/11/29 17:23:37;;;;;;;70.90;33.40;;;;;;;4.99;100.00;101897.81;10458019;28;20464;-84
2022/11/29 17:28:42;;;;;;;76.97;38.20;;;;;;;4.83;100.00;101892.97;10419016;28;20040;-85
2022/11/29 17:33:43;;;;;;;59.63;32.47;;;;;;;4.71;100.00;101898.00;10434491;28;20029;-86
2022/11/29 17:38:44;;;;;;;62.22;30.50;;;;;;;4.66;100.00;101902.75;10423530;28;20123;-85
2022/11/29 17:43:44;;;;;;;86.82;36.85;;;;;;;4.37;100.00;101908.84;10418298;28;20057;-85
2022/11/29 17:48:45;;;;;;;67.93;32.80;;;;;;;4.13;100.00;101904.06;10405824;28;20469;-85
2022/11/29 17:53:45;;;;;;;69.80;31.83;;;;;;;3.99;100.00;101906.31;10397158;28;20037;-86
2022/11/29 17:58:46;;;;;;;324.15;70.53;;;;;;;3.93;100.00;101903.16;10462980;28;20051;-88
2022/11/29 18:03:47;;;;;;;63.58;35.05;;;;;;;3.93;100.00;101904.09;10465913;28;20043;-84
2022/11/29 18:08:49;;;;;;;62.95;34.65;;;;;;;3.68;100.00;101906.09;10438754;28;20040;-86
2022/11/29 18:13:50;;;;;;;75.07;35.70;;;;;;;3.35;100.00;101915.13;10445958;28;20152;-92
2022/11/29 18:18:59;;;;;;;58.23;32.87;;;;;;;3.06;100.00;101921.06;10417782;28;20045;-84
2022/11/29 18:24:00;;;;;;;77.40;37.53;;;;;;;2.83;100.00;101924.06;10425197;28;20671;-86
2022/11/29 18:29:01;;;;;;;78.18;35.00;;;;;;;2.78;100.00;101914.19;10446792;28;20025;-85
2022/11/29 18:34:05;;;;;;;77.40;37.28;;;;;;;2.78;100.00;101916.78;10449145;28;20037;-80
2022/11/29 18:39:10;;;;;;;74.30;38.78;;;;;;;2.63;100.00;101917.88;10426660;28;20049;-83
2022/11/29 18:44:14;;;;;;;78.45;36.88;;;;;;;2.47;100.00;101930.97;10426443;28;20145;-85
2022/11/29 18:49:16;;;;;;;81.38;36.83;;;;;;;2.37;100.00;101931.78;10445132;28;20080;-87
2022/11/29 18:54:17;;;;;;;133.27;47.92;;;;;;;2.30;100.00;101935.41;10458099;28;20455;-84
2022/11/29 18:59:17;;;;;;;99.45;39.83;;;;;;;2.37;100.00;101941.19;10455113;28;20041;-86
2022/11/29 19:04:18;;;;;;;81.05;37.58;;;;;;;2.33;100.00;101934.81;10434196;28;20627;-93
2022/11/29 19:09:19;;;;;;;62.47;36.00;;;;;;;2.27;100.00;101944.56;10412919;28;20041;-85
2022/11/29 19:14:20;;;;;;;67.53;34.50;;;;;;;2.31;100.00;101937.25;10429980;28;20492;-85
2022/11/29 19:19:21;;;;;;;84.90;41.72;;;;;;;2.48;100.00;101937.97;10429384;28;20064;-85
2022/11/29 19:24:22;;;;;;;76.77;41.83;;;;;;;2.55;100.00;101936.91;10437344;28;20125;-85
2022/11/29 19:29:22;;;;;;;90.35;43.13;;;;;;;2.58;100.00;101943.28;10412836;28;20378;-87
2022/11/29 19:34:23;;;;;;;110.25;44.97;;;;;;;2.71;100.00;101947.06;10423698;28;20041;-87
2022/11/29 19:39:23;;;;;;;89.57;42.97;;;;;;;2.89;100.00;101950.50;10425916;28;20109;-86
2022/11/29 19:44:24;;;;;;;112.38;49.85;;;;;;;3.06;100.00;101957.28;10423245;28;20080;-88
2022/11/29 19:49:24;;;;;;;114.05;53.53;;;;;;;3.28;100.00;101962.84;10447855;28;20435;-87
2022/11/29 19:54:25;;;;;;;153.55;65.55;;;;;;;3.60;100.00;101962.38;10419215;28;20049;-87
2022/11/29 19:59:25;;;;;;;157.88;64.65;;;;;;;3.81;100.00;101968.63;10461714;28;20492;-87
2022/11/29 20:04:26;;;;;;;202.07;76.78;;;;;;;3.90;100.00;101963.38;10459682;28;20040;-87
2022/11/29 20:09:28;;;;;;;197.70;84.43;;;;;;;3.96;100.00;101970.78;10461758;28;20655;-87
2022/11/29 20:14:28;;;;;;;185.80;84.35;;;;;;;3.99;100.00;101981.44;10459504;28;20187;-87
2022/11/29 20:19:29;;;;;;;197.00;76.57;;;;;;;4.05;100.00;101973.34;10443984;28;20354;-87
2022/11/29 20:24:29;;;;;;;190.90;80.30;;;;;;;4.11;100.00;101982.56;10453732;28;20045;-87
2022/11/29 20:29:31;;;;;;;205.45;79.15;;;;;;;4.17;100.00;101979.66;10424605;28;20054;-85
2022/11/29 20:34:32;;;;;;;187.50;79.72;;;;;;;4.18;100.00;101994.41;10428566;28;20493;-86
2022/11/29 20:39:49;;;;;;;190.85;79.72;;;;;;;4.22;100.00;101985.22;10446397;28;20040;-85
2022/11/29 20:44:53;;;;;;;202.80;74.72;;;;;;;4.26;100.00;101987.31;10448215;28;20044;-86
2022/11/29 20:49:53;;;;;;;174.48;75.63;;;;;;;4.29;100.00;101992.78;10430920;28;20044;-86
2022/11/29 20:54:54;;;;;;;168.25;69.72;;;;;;;4.36;100.00;101999.47;10438613;28;20050;-86
2022/11/29 20:59:54;;;;;;;169.25;68.32;;;;;;;4.39;100.00;102000.63;10443578;28;20035;-86
2022/11/29 21:04:55;;;;;;;192.85;80.55;;;;;;;4.38;100.00;102008.28;10449701;28;20043;-86
2022/11/29 21:09:55;;;;;;;168.18;74.28;;;;;;;4.40;100.00;102012.81;10480991;28;20463;-86
2022/11/29 21:14:57;;;;;;;167.57;74.10;;;;;;;4.38;100.00;102005.69;10446999;28;20473;-91
2022/11/29 21:19:57;;;;;;;193.23;70.80;;;;;;;4.40;100.00;101999.88;10447581;28;20048;-96
2022/11/29 21:25:33;;;;;;;165.13;74.20;;;;;;;4.42;100.00;102005.22;10448039;28;20444;-90
2022/11/29 21:30:34;;;;;;;153.45;68.43;;;;;;;4.41;100.00;102009.47;10437106;28;20040;-91
2022/11/29 21:35:38;;;;;;;192.13;75.75;;;;;;;4.46;100.00;102004.72;10472279;28;20037;-91
2022/11/29 21:40:38;;;;;;;195.85;74.07;;;;;;;4.49;100.00;102004.06;10457144;28;20119;-88
2022/11/29 21:45:39;;;;;;;176.00;74.05;;;;;;;4.51;100.00;102005.13;10454863;28;20043;-90
2022/11/29 21:50:40;;;;;;;175.05;75.05;;;;;;;4.53;100.00;102008.75;10467435;28;20068;-90
2022/11/29 21:55:42;;;;;;;176.18;75.18;;;;;;;4.57;100.00;102003.06;10462668;28;20124;-89
2022/11/29 22:00:44;;;;;;;;;;;;;;;4.59;100.00;102005.81;10464272;28;20044;-88
2022/11/29 22:05:44;;;;;;;181.60;79.53;;;;;;;4.62;100.00;102003.50;10468098;28;19921;-89
2022/11/29 22:10:45;;;;;;;159.88;70.47;;;;;;;4.62;100.00;102014.78;10462681;28;20061;-90
2022/11/29 22:15:46;;;;;;;156.50;62.70;;;;;;;4.67;100.00;102010.00;10460710;28;20033;-90
2022/11/29 22:20:50;;;;;;;164.15;72.88;;;;;;;4.67;100.00;102016.09;10457211;28;20041;-88
2022/11/29 22:25:52;;;;;;;179.00;77.57;;;;;;;4.73;100.00;102010.56;10465365;28;20408;-89
2022/11/29 22:31:17;;;;;;;173.50;74.38;;;;;;;4.73;100.00;102002.78;10455134;28;20037;-90
2022/11/29 22:36:17;;;;;;;191.55;81.93;;;;;;;4.78;100.00;102000.59;10444816;28;20045;-90
2022/11/29 22:41:18;;;;;;;196.00;82.35;;;;;;;4.81;100.00;102006.03;10456657;28;20057;-90
2022/11/29 22:46:20;;;;;;;193.40;75.95;;;;;;;4.83;100.00;102007.09;10452335;28;20041;-83
2022/11/29 22:51:25;;;;;;;193.57;78.93;;;;;;;4.83;100.00;102008.03;10442777;28;20489;-88
2022/11/29 22:56:28;;;;;;;206.10;85.57;;;;;;;4.87;100.00;102008.28;10461318;28;20079;-90
2022/11/29 23:01:29;;;;;;;;;;;;;;;4.90;100.00;102011.16;10430740;28;20060;-90
2022/11/29 23:06:31;;;;;;;211.43;82.40;;;;;;;4.90;100.00;102016.34;10463913;28;20294;-89
2022/11/29 23:11:32;;;;;;;208.50;89.65;;;;;;;4.91;100.00;102018.16;10459385;28;20116;-90